« Back
NWS Peachtree City, Ga » Text Product » ATL Terminal Aerodrome Forecast


Printer-friendly Version
Current Version              Previous Versions:   1  2  3  4  5  6  7  8  9  

Terminal Aerodrome Forecast

759
FTUS42 KFFC 230525
TAFATL
TAF
KATL 230525Z 2306/2412 09004KT P6SM SKC
     FM231400 11007KT P6SM FEW250
     FM231700 11010G16KT P6SM FEW045
     FM240100 10006KT P6SM SKC
     FM241000 13006KT P6SM SKC=

USA.gov is the U.S. government's official web portal to all federal, state and local government web resources and services.